createdAt,value
2022-10-09T00:01:17.511Z,7.13
2022-10-09T00:03:19.208Z,9.68
2022-10-09T00:05:23.724Z,19.15
2022-10-09T00:07:25.469Z,20.40
2022-10-09T00:09:27.192Z,35.92
2022-10-09T00:11:29.803Z,26.70
2022-10-09T00:13:31.443Z,27.90
2022-10-09T00:15:33.056Z,27.17
2022-10-09T00:17:34.723Z,21.40
2022-10-09T00:19:36.354Z,16.70
2022-10-09T00:21:37.967Z,14.32
2022-10-09T00:23:39.669Z,13.25
2022-10-09T00:25:53.963Z,16.17
2022-10-09T00:27:57.712Z,14.48
2022-10-09T00:29:59.319Z,16.05
2022-10-09T00:32:00.971Z,14.93
2022-10-09T00:34:02.643Z,12.43
2022-10-09T00:36:10.479Z,10.27
2022-10-09T00:38:12.667Z,6.88
2022-10-09T00:40:15.111Z,6.75
2022-10-09T00:42:17.026Z,8.77
2022-10-09T00:44:50.037Z,9.38
2022-10-09T00:46:52.481Z,11.38
2022-10-09T00:49:06.386Z,5.90
2022-10-09T00:51:08.080Z,6.18
2022-10-09T00:53:13.577Z,6.78
2022-10-09T00:55:15.452Z,7.65
2022-10-09T00:57:17.136Z,6.10
2022-10-09T00:59:19.243Z,5.97
2022-10-09T01:01:21.163Z,6.50
2022-10-09T01:03:22.982Z,5.22
2022-10-09T01:05:32.662Z,8.27
2022-10-09T01:07:51.757Z,5.50
2022-10-09T01:10:29.020Z,9.02
2022-10-09T01:12:34.221Z,6.30
2022-10-09T01:14:46.110Z,6.15
2022-10-09T01:16:55.613Z,4.88
2022-10-09T01:19:10.022Z,5.05
2022-10-09T01:21:42.068Z,6.68
2022-10-09T01:23:57.629Z,6.15
2022-10-09T01:26:09.329Z,5.03
2022-10-09T01:28:12.514Z,4.93
2022-10-09T01:30:18.551Z,4.65
2022-10-09T01:32:26.075Z,4.45
2022-10-09T01:34:29.612Z,4.72
2022-10-09T01:36:32.753Z,4.40
2022-10-09T01:38:35.906Z,4.97
2022-10-09T01:40:39.265Z,5.35
2022-10-09T01:42:42.401Z,4.13
2022-10-09T01:44:44.865Z,5.55
2022-10-09T01:46:48.215Z,7.25
2022-10-09T01:49:22.547Z,6.13
2022-10-09T01:51:28.953Z,4.45
2022-10-09T01:53:32.358Z,4.50
2022-10-09T01:55:43.931Z,4.90
2022-10-09T01:58:12.091Z,4.25
2022-10-09T02:00:14.512Z,4.70
2022-10-09T02:02:17.510Z,5.85
2022-10-09T02:04:20.385Z,3.60
2022-10-09T02:06:22.533Z,4.32
2022-10-09T02:08:26.608Z,3.95
2022-10-09T02:10:29.767Z,6.30
2022-10-09T02:12:38.580Z,4.40
2022-10-09T02:14:44.556Z,3.83
2022-10-09T02:16:48.986Z,4.95
2022-10-09T02:18:58.733Z,4.72
2022-10-09T02:21:07.516Z,6.55
2022-10-09T02:23:10.495Z,7.72
2022-10-09T02:25:13.319Z,5.10
2022-10-09T02:27:17.261Z,5.57
2022-10-09T02:29:20.094Z,10.63
2022-10-09T02:31:31.205Z,5.30
2022-10-09T02:33:34.662Z,5.88
2022-10-09T02:35:37.698Z,3.92
2022-10-09T02:37:39.377Z,2.97
2022-10-09T02:39:42.117Z,3.67
2022-10-09T02:41:43.900Z,3.08
2022-10-09T02:43:45.583Z,8.63
2022-10-09T02:45:47.282Z,4.85
2022-10-09T02:47:48.936Z,6.07
2022-10-09T02:49:50.751Z,8.15
2022-10-09T02:51:52.577Z,5.03
2022-10-09T02:53:55.147Z,3.38
2022-10-09T02:55:56.866Z,2.95
2022-10-09T02:57:58.630Z,9.50
2022-10-09T03:00:00.259Z,3.42
2022-10-09T03:02:02.291Z,3.92
2022-10-09T03:04:04.642Z,4.43
2022-10-09T03:06:09.567Z,3.25
2022-10-09T03:08:11.211Z,3.67
2022-10-09T03:10:13.250Z,4.22
2022-10-09T03:12:21.161Z,6.93
2022-10-09T03:14:22.860Z,3.30
2022-10-09T03:16:25.939Z,4.18
2022-10-09T03:18:27.635Z,3.55
2022-10-09T03:20:31.996Z,4.57
2022-10-09T03:22:33.751Z,3.95
2022-10-09T03:24:35.426Z,3.20
2022-10-09T03:26:37.292Z,4.72
2022-10-09T03:28:41.152Z,5.40
2022-10-09T03:30:42.881Z,4.32
2022-10-09T03:32:44.518Z,3.25
2022-10-09T03:34:46.130Z,4.80
2022-10-09T03:36:47.746Z,3.35
2022-10-09T03:38:49.577Z,4.45
2022-10-09T03:40:51.292Z,4.22
2022-10-09T03:42:52.902Z,10.65
2022-10-09T03:44:54.591Z,4.13
2022-10-09T03:46:56.269Z,4.25
2022-10-09T03:48:57.965Z,3.40
2022-10-09T03:50:59.647Z,5.05
2022-10-09T03:53:01.290Z,2.78
2022-10-09T03:55:03.191Z,3.83
2022-10-09T03:57:04.797Z,4.53
2022-10-09T03:59:07.616Z,3.60
2022-10-09T04:01:09.645Z,3.20
2022-10-09T04:03:11.445Z,3.15
2022-10-09T04:05:13.068Z,2.97
2022-10-09T04:07:14.699Z,6.18
2022-10-09T04:09:16.287Z,7.18
2022-10-09T04:11:18.028Z,3.35
2022-10-09T04:13:19.731Z,5.15
2022-10-09T04:15:21.486Z,5.00
2022-10-09T04:17:23.112Z,3.42
2022-10-09T04:19:24.783Z,3.17
2022-10-09T04:21:26.474Z,3.72
2022-10-09T04:23:29.212Z,4.28
2022-10-09T04:25:31.911Z,5.25
2022-10-09T04:27:33.562Z,3.50
2022-10-09T04:29:35.233Z,3.42
2022-10-09T04:31:36.910Z,2.97
2022-10-09T04:33:38.592Z,3.17
2022-10-09T04:35:49.404Z,3.63
2022-10-09T04:37:50.989Z,3.03
2022-10-09T04:39:52.705Z,4.75
2022-10-09T04:41:54.355Z,2.70
2022-10-09T04:43:56.757Z,4.72
2022-10-09T04:45:58.515Z,7.03
2022-10-09T04:48:00.197Z,3.70
2022-10-09T04:50:02.076Z,3.55
2022-10-09T04:52:03.812Z,2.92
2022-10-09T04:54:05.527Z,5.47
2022-10-09T04:56:10.282Z,2.85
2022-10-09T04:58:13.555Z,3.60
2022-10-09T05:00:15.484Z,2.78
2022-10-09T05:02:17.208Z,3.45
2022-10-09T05:04:18.998Z,4.03
2022-10-09T05:06:21.559Z,9.77
2022-10-09T05:08:23.203Z,2.75
2022-10-09T05:10:27.698Z,5.25
2022-10-09T05:12:29.328Z,2.88
2022-10-09T05:14:30.963Z,3.03
2022-10-09T05:16:44.758Z,2.85
2022-10-09T05:18:56.368Z,2.70
2022-10-09T05:20:58.107Z,3.00
2022-10-09T05:22:59.750Z,2.88
2022-10-09T05:25:01.389Z,2.47
2022-10-09T05:27:02.995Z,3.22
2022-10-09T05:29:04.591Z,3.80
2022-10-09T05:31:07.323Z,3.00
2022-10-09T05:33:09.014Z,3.38
2022-10-09T05:35:10.612Z,5.60
2022-10-09T05:37:12.247Z,3.88
2022-10-09T05:39:13.867Z,2.85
2022-10-09T05:41:17.105Z,3.00
2022-10-09T05:43:19.008Z,3.78
2022-10-09T05:45:20.657Z,8.75
2022-10-09T05:47:22.416Z,4.40
2022-10-09T05:49:24.107Z,3.13
2022-10-09T05:51:27.616Z,3.78
2022-10-09T05:53:29.188Z,11.20
2022-10-09T05:55:30.853Z,3.15
2022-10-09T05:57:32.739Z,2.80
2022-10-09T05:59:34.366Z,2.17
2022-10-09T06:01:39.146Z,3.83
2022-10-09T06:03:40.903Z,2.60
2022-10-09T06:05:42.504Z,2.75
2022-10-09T06:07:44.220Z,3.50
2022-10-09T06:09:45.923Z,4.30
2022-10-09T06:11:47.684Z,3.30
2022-10-09T06:13:50.011Z,3.25
2022-10-09T06:15:55.010Z,2.92
2022-10-09T06:17:56.920Z,4.80
2022-10-09T06:19:58.571Z,3.10
2022-10-09T06:22:00.219Z,6.63
2022-10-09T06:24:03.162Z,3.92
2022-10-09T06:26:11.805Z,3.03
2022-10-09T06:28:13.489Z,3.13
2022-10-09T06:30:15.231Z,4.00
2022-10-09T06:32:16.832Z,3.25
2022-10-09T06:34:18.560Z,3.38
2022-10-09T06:36:25.459Z,3.33
2022-10-09T06:38:27.633Z,2.85
2022-10-09T06:40:29.424Z,4.60
2022-10-09T06:42:31.093Z,3.05
2022-10-09T06:44:32.740Z,3.45
2022-10-09T06:46:37.610Z,3.65
2022-10-09T06:48:40.241Z,4.15
2022-10-09T06:50:41.976Z,3.33
2022-10-09T06:52:43.652Z,6.88
2022-10-09T06:54:45.452Z,3.85
2022-10-09T06:56:47.058Z,5.78
2022-10-09T06:58:48.975Z,4.07
2022-10-09T07:00:50.675Z,4.95
2022-10-09T07:02:52.833Z,5.00
2022-10-09T07:04:55.083Z,3.42
2022-10-09T07:06:56.658Z,4.38
2022-10-09T07:09:00.687Z,4.78
2022-10-09T07:11:16.723Z,4.88
2022-10-09T07:13:18.288Z,4.88
2022-10-09T07:15:20.049Z,4.97
2022-10-09T07:17:21.664Z,4.95
2022-10-09T07:19:23.295Z,4.15
2022-10-09T07:21:24.910Z,4.07
2022-10-09T07:23:28.474Z,2.83
2022-10-09T07:25:30.084Z,3.50
2022-10-09T07:27:31.782Z,4.10
2022-10-09T07:29:33.371Z,4.13
2022-10-09T07:31:35.231Z,3.85
2022-10-09T07:33:37.102Z,5.95
2022-10-09T07:35:38.737Z,2.75
2022-10-09T07:37:40.373Z,2.97
2022-10-09T07:39:45.047Z,2.90
2022-10-09T07:41:47.881Z,3.83
2022-10-09T07:43:49.703Z,3.40
2022-10-09T07:45:51.334Z,6.13
2022-10-09T07:47:53.154Z,7.90
2022-10-09T07:49:54.769Z,4.80
2022-10-09T07:51:56.364Z,4.20
2022-10-09T07:54:00.107Z,3.20
2022-10-09T07:56:01.791Z,7.70
2022-10-09T07:58:03.447Z,4.47
2022-10-09T08:00:05.702Z,2.03
2022-10-09T08:02:08.841Z,2.67
2022-10-09T08:04:10.531Z,3.67
2022-10-09T08:06:12.326Z,2.92
2022-10-09T08:08:13.975Z,4.05
2022-10-09T08:10:15.784Z,1.80
2022-10-09T08:12:17.575Z,7.32
2022-10-09T08:14:19.769Z,10.10
2022-10-09T08:16:22.647Z,3.53
2022-10-09T08:18:24.387Z,3.03
2022-10-09T08:20:26.026Z,4.28
2022-10-09T08:22:27.710Z,5.20
2022-10-09T08:24:29.547Z,2.83
2022-10-09T08:26:31.209Z,2.30
2022-10-09T08:28:32.862Z,5.57
2022-10-09T08:30:34.664Z,8.88
2022-10-09T08:32:36.303Z,3.30
2022-10-09T08:34:37.967Z,5.07
2022-10-09T08:36:39.683Z,6.13
2022-10-09T08:38:49.127Z,3.35
2022-10-09T08:41:04.738Z,2.00
2022-10-09T08:43:15.640Z,9.88
2022-10-09T08:45:18.692Z,3.88
2022-10-09T08:47:40.060Z,4.15
2022-10-09T08:49:53.145Z,4.88
2022-10-09T08:51:56.469Z,3.40
2022-10-09T08:54:25.721Z,4.53
2022-10-09T08:56:27.701Z,4.38
2022-10-09T08:58:34.087Z,2.80
2022-10-09T09:01:03.150Z,10.85
2022-10-09T09:03:42.827Z,2.40
2022-10-09T09:05:56.812Z,6.00
2022-10-09T09:08:19.980Z,3.13
2022-10-09T09:10:36.361Z,4.15
2022-10-09T09:12:46.699Z,3.45
2022-10-09T09:14:54.731Z,7.30
2022-10-09T09:17:31.491Z,4.25
2022-10-09T09:20:03.458Z,3.20
2022-10-09T09:22:09.823Z,3.50
2022-10-09T09:24:16.233Z,4.13
2022-10-09T09:26:20.099Z,3.58
2022-10-09T09:28:31.989Z,7.03
2022-10-09T09:30:41.452Z,9.48
2022-10-09T09:32:55.650Z,4.75
2022-10-09T09:35:15.579Z,4.15
2022-10-09T09:37:17.479Z,5.03
2022-10-09T09:41:43.203Z,4.63
2022-10-09T09:43:45.224Z,2.30
2022-10-09T09:45:47.455Z,4.65
2022-10-09T09:47:53.305Z,7.40
2022-10-09T09:49:57.915Z,4.57
2022-10-09T09:52:01.102Z,3.28
2022-10-09T09:54:22.398Z,2.33
2022-10-09T09:57:10.375Z,2.88
2022-10-09T09:59:01.963Z,4.78
2022-10-09T10:01:06.505Z,3.60
2022-10-09T10:03:16.330Z,5.72
2022-10-09T10:05:24.910Z,2.75
2022-10-09T10:07:35.055Z,3.13
2022-10-09T10:09:36.768Z,3.63
2022-10-09T10:11:43.915Z,3.63
2022-10-09T10:13:49.473Z,2.97
2022-10-09T10:15:56.209Z,3.40
2022-10-09T10:18:07.679Z,4.55
2022-10-09T10:20:14.131Z,2.88
2022-10-09T10:22:23.738Z,3.40
2022-10-09T10:24:30.644Z,9.20
2022-10-09T10:26:47.370Z,2.03
2022-10-09T10:28:53.996Z,1.75
2022-10-09T10:30:57.628Z,1.92
2022-10-09T10:33:05.968Z,2.90
2022-10-09T10:35:14.795Z,1.92
2022-10-09T10:37:28.563Z,9.75
2022-10-09T10:39:37.297Z,1.73
2022-10-09T10:41:45.282Z,5.57
2022-10-09T10:43:49.778Z,2.65
2022-10-09T10:45:58.590Z,2.15
2022-10-09T10:48:01.719Z,2.20
2022-10-09T10:50:03.805Z,2.85
2022-10-09T10:52:42.770Z,1.75
2022-10-09T10:54:54.077Z,2.00
2022-10-09T10:57:10.868Z,3.15
2022-10-09T10:59:34.538Z,2.53
2022-10-09T11:01:47.733Z,1.90
2022-10-09T11:03:58.512Z,2.97
2022-10-09T11:06:10.283Z,2.00
2022-10-09T11:08:42.839Z,5.13
2022-10-09T11:11:09.251Z,1.95
2022-10-09T11:13:30.483Z,0.93
2022-10-09T11:15:40.944Z,4.38
2022-10-09T11:17:48.258Z,1.58
2022-10-09T11:20:03.012Z,3.25
2022-10-09T11:22:32.304Z,3.75
2022-10-09T11:24:39.704Z,2.50
2022-10-09T11:26:53.001Z,1.67
2022-10-09T11:29:21.888Z,3.92
2022-10-09T11:31:43.485Z,2.75
2022-10-09T11:33:54.821Z,2.83
2022-10-09T11:36:01.796Z,1.77
2022-10-09T11:38:15.687Z,1.13
2022-10-09T11:40:20.599Z,3.45
2022-10-09T11:42:24.639Z,1.65
2022-10-09T11:44:37.952Z,1.80
2022-10-09T11:46:52.199Z,1.70
2022-10-09T11:49:05.430Z,1.98
2022-10-09T11:51:19.912Z,1.65
2022-10-09T11:53:23.149Z,3.97
2022-10-09T11:55:30.667Z,7.82
2022-10-09T11:57:33.599Z,3.20
2022-10-09T11:59:42.468Z,1.58
2022-10-09T12:01:44.911Z,1.80
2022-10-09T12:03:46.749Z,1.38
2022-10-09T12:05:49.883Z,1.70
2022-10-09T12:07:51.539Z,2.17
2022-10-09T12:10:01.120Z,1.60
2022-10-09T12:12:07.609Z,1.30
2022-10-09T12:14:12.168Z,7.78
2022-10-09T12:16:33.783Z,3.38
2022-10-09T12:18:39.105Z,2.92
2022-10-09T12:20:41.681Z,2.53
2022-10-09T12:23:01.481Z,2.25
2022-10-09T12:25:25.657Z,2.50
2022-10-09T12:27:28.998Z,2.35
2022-10-09T12:29:36.591Z,0.82
2022-10-09T12:31:40.282Z,4.43
2022-10-09T12:33:46.423Z,7.57
2022-10-09T12:36:02.159Z,3.75
2022-10-09T12:38:18.533Z,1.48
2022-10-09T12:40:27.245Z,4.20
2022-10-09T12:42:28.986Z,2.53
2022-10-09T12:44:34.267Z,2.17
2022-10-09T12:46:37.722Z,1.52
2022-10-09T12:48:43.312Z,2.65
2022-10-09T12:50:44.941Z,1.35
2022-10-09T12:52:55.211Z,1.90
2022-10-09T12:54:56.925Z,2.50
2022-10-09T12:56:59.770Z,2.75
2022-10-09T12:59:02.260Z,3.08
2022-10-09T13:01:06.486Z,2.20
2022-10-09T13:03:23.197Z,1.45
2022-10-09T13:05:38.721Z,1.83
2022-10-09T13:07:40.428Z,0.95
2022-10-09T13:09:42.227Z,1.35
2022-10-09T13:11:45.285Z,2.05
2022-10-09T13:13:51.248Z,1.08
2022-10-09T13:16:09.500Z,2.60
2022-10-09T13:18:21.957Z,2.50
2022-10-09T13:20:27.324Z,2.65
2022-10-09T13:22:33.680Z,2.40
2022-10-09T13:24:37.583Z,2.45
2022-10-09T13:26:41.532Z,1.88
2022-10-09T13:28:43.155Z,1.40
2022-10-09T13:30:44.865Z,3.65
2022-10-09T13:32:46.605Z,1.15
2022-10-09T13:34:48.290Z,1.45
2022-10-09T13:36:50.426Z,2.03
2022-10-09T13:38:52.140Z,1.52
2022-10-09T13:40:55.029Z,1.25
2022-10-09T13:43:01.574Z,1.52
2022-10-09T13:45:05.022Z,1.90
2022-10-09T13:47:06.736Z,1.30
2022-10-09T13:49:08.366Z,1.63
2022-10-09T13:51:11.195Z,1.55
2022-10-09T13:53:12.955Z,1.05
2022-10-09T13:55:15.003Z,1.35
2022-10-09T13:57:16.637Z,1.10
2022-10-09T13:59:18.488Z,2.22
2022-10-09T14:01:20.770Z,1.75
2022-10-09T14:03:22.465Z,1.38
2022-10-09T14:05:26.629Z,1.52
2022-10-09T14:07:28.253Z,3.50
2022-10-09T14:09:29.894Z,3.05
2022-10-09T14:11:32.325Z,4.03
2022-10-09T14:13:34.335Z,1.58
2022-10-09T14:15:39.304Z,2.47
2022-10-09T14:17:40.909Z,4.57
2022-10-09T14:19:42.855Z,0.98
2022-10-09T14:21:44.545Z,1.58
2022-10-09T14:23:46.189Z,1.95
2022-10-09T14:25:47.793Z,3.50
2022-10-09T14:27:49.415Z,1.60
2022-10-09T14:29:54.091Z,4.13
2022-10-09T14:31:58.373Z,3.00
2022-10-09T14:34:00.118Z,2.65
2022-10-09T14:36:09.343Z,2.20
2022-10-09T14:38:10.967Z,2.55
2022-10-09T14:40:12.774Z,2.42
2022-10-09T14:42:14.377Z,1.58
2022-10-09T14:44:16.041Z,3.03
2022-10-09T14:46:18.260Z,3.08
2022-10-09T14:48:19.891Z,4.13
2022-10-09T14:50:21.616Z,1.70
2022-10-09T14:52:23.276Z,1.30
2022-10-09T14:54:25.052Z,2.10
2022-10-09T14:56:27.488Z,2.20
2022-10-09T14:58:34.053Z,2.92
2022-10-09T15:00:35.824Z,2.15
2022-10-09T15:02:37.827Z,2.10
2022-10-09T15:04:39.657Z,2.10
2022-10-09T15:06:41.347Z,1.52
2022-10-09T15:08:43.660Z,1.65
2022-10-09T15:10:45.446Z,3.95
2022-10-09T15:12:47.161Z,1.58
2022-10-09T15:14:49.688Z,2.33
2022-10-09T15:16:51.342Z,2.45
2022-10-09T15:18:55.634Z,1.48
2022-10-09T15:21:00.058Z,2.70
2022-10-09T15:23:01.674Z,3.55
2022-10-09T15:25:03.459Z,2.70
2022-10-09T15:27:05.627Z,2.85
2022-10-09T15:29:08.605Z,3.85
2022-10-09T15:31:34.498Z,3.28
2022-10-09T15:33:36.097Z,2.42
2022-10-09T15:35:38.944Z,1.95
2022-10-09T15:37:40.700Z,2.00
2022-10-09T15:39:42.426Z,3.15
2022-10-09T15:41:44.127Z,1.95
2022-10-09T15:43:45.799Z,2.40
2022-10-09T15:45:48.060Z,2.45
2022-10-09T15:47:52.122Z,4.63
2022-10-09T15:49:53.947Z,3.13
2022-10-09T15:51:55.625Z,3.35
2022-10-09T15:53:59.095Z,3.83
2022-10-09T15:56:05.494Z,2.92
2022-10-09T15:58:07.241Z,6.07
2022-10-09T16:00:10.067Z,3.17
2022-10-09T16:02:11.863Z,2.75
2022-10-09T16:04:15.668Z,1.95
2022-10-09T16:06:20.399Z,3.00
2022-10-09T16:08:22.119Z,2.17
2022-10-09T16:10:23.838Z,1.73
2022-10-09T16:12:25.595Z,2.35
2022-10-09T16:14:31.252Z,2.30
2022-10-09T16:16:33.015Z,2.42
2022-10-09T16:18:35.034Z,2.40
2022-10-09T16:20:38.081Z,1.40
2022-10-09T16:22:39.728Z,2.63
2022-10-09T16:24:41.551Z,2.78
2022-10-09T16:26:43.185Z,2.58
2022-10-09T16:28:46.207Z,3.97
2022-10-09T16:30:47.893Z,2.63
2022-10-09T16:32:50.100Z,1.40
2022-10-09T16:34:52.008Z,2.90
2022-10-09T16:36:53.736Z,3.55
2022-10-09T16:38:56.594Z,2.90
2022-10-09T16:41:02.715Z,1.73
2022-10-09T16:43:04.765Z,2.72
2022-10-09T16:45:07.114Z,1.95
2022-10-09T16:47:08.799Z,3.38
2022-10-09T16:49:20.012Z,7.50
2022-10-09T16:51:29.904Z,4.80
2022-10-09T16:53:31.690Z,2.92
2022-10-09T16:55:33.259Z,2.08
2022-10-09T16:57:34.928Z,1.52
2022-10-09T16:59:36.603Z,2.97
2022-10-09T17:01:43.569Z,2.30
2022-10-09T17:03:45.322Z,1.60
2022-10-09T17:05:46.952Z,2.55
2022-10-09T17:07:48.923Z,3.42
2022-10-09T17:09:52.011Z,1.50
2022-10-09T17:11:53.634Z,1.55
2022-10-09T17:13:56.926Z,2.25
2022-10-09T17:15:58.602Z,3.05
2022-10-09T17:18:00.185Z,2.70
2022-10-09T17:20:01.912Z,3.25
2022-10-09T17:22:03.858Z,1.63
2022-10-09T17:24:05.993Z,3.10
2022-10-09T17:26:11.761Z,2.58
2022-10-09T17:28:13.696Z,3.95
2022-10-09T17:30:15.417Z,6.97
2022-10-09T17:32:17.134Z,2.47
2022-10-09T17:34:18.896Z,3.00
2022-10-09T17:36:22.590Z,1.70
2022-10-09T17:38:24.293Z,2.88
2022-10-09T17:40:25.938Z,3.05
2022-10-09T17:42:27.554Z,3.22
2022-10-09T17:44:31.957Z,3.10
2022-10-09T17:46:33.543Z,6.05
2022-10-09T17:48:36.013Z,7.65
2022-10-09T17:50:37.675Z,2.55
2022-10-09T17:52:39.331Z,6.45
2022-10-09T17:54:40.948Z,4.32
2022-10-09T17:56:43.014Z,3.70
2022-10-09T17:58:47.502Z,3.13
2022-10-09T18:00:51.835Z,2.55
2022-10-09T18:02:53.459Z,5.00
2022-10-09T18:04:57.419Z,3.85
2022-10-09T18:06:59.154Z,7.05
2022-10-09T18:09:01.668Z,5.85
2022-10-09T18:11:07.616Z,5.03
2022-10-09T18:13:10.180Z,4.20
2022-10-09T18:15:12.034Z,4.32
2022-10-09T18:17:13.704Z,6.68
2022-10-09T18:19:18.545Z,29.52
2022-10-09T18:21:20.150Z,25.60
2022-10-09T18:23:22.826Z,21.17
2022-10-09T18:25:24.701Z,18.20
2022-10-09T18:27:28.924Z,14.68
2022-10-09T18:29:30.679Z,16.15
2022-10-09T18:31:32.354Z,17.60
2022-10-09T18:33:34.676Z,16.27
2022-10-09T18:35:37.686Z,19.08
2022-10-09T18:37:39.477Z,16.95
2022-10-09T18:39:41.125Z,11.75
2022-10-09T18:41:43.519Z,12.75
2022-10-09T18:43:45.346Z,10.57
2022-10-09T18:45:47.687Z,8.68
2022-10-09T18:47:49.413Z,9.02
2022-10-09T18:49:52.740Z,8.73
2022-10-09T18:51:54.501Z,8.90
2022-10-09T18:54:00.768Z,10.18
2022-10-09T18:56:02.721Z,7.13
2022-10-09T18:58:05.153Z,8.25
2022-10-09T19:00:07.836Z,7.32
2022-10-09T19:02:09.532Z,8.65
2022-10-09T19:04:11.268Z,8.55
2022-10-09T19:06:12.936Z,8.45
2022-10-09T19:08:14.608Z,7.75
2022-10-09T19:10:16.346Z,10.77
2022-10-09T19:12:19.604Z,6.55
2022-10-09T19:14:21.481Z,6.30
2022-10-09T19:16:24.323Z,5.38
2022-10-09T19:18:27.070Z,6.88
2022-10-09T19:20:29.040Z,7.30
2022-10-09T19:22:30.780Z,8.65
2022-10-09T19:24:34.359Z,12.45
2022-10-09T19:26:36.987Z,7.85
2022-10-09T19:28:39.355Z,9.27
2022-10-09T19:30:42.068Z,9.15
2022-10-09T19:32:43.888Z,10.15
2022-10-09T19:34:45.508Z,8.57
2022-10-09T19:36:48.174Z,8.90
2022-10-09T19:38:49.877Z,8.55
2022-10-09T19:40:51.815Z,9.95
2022-10-09T19:42:53.490Z,10.05
2022-10-09T19:44:55.288Z,9.55
2022-10-09T19:46:57.141Z,12.02
2022-10-09T19:48:58.797Z,10.73
2022-10-09T19:51:05.441Z,12.80
2022-10-09T19:53:07.157Z,11.63
2022-10-09T19:55:09.047Z,11.98
2022-10-09T19:57:10.724Z,12.18
2022-10-09T19:59:12.554Z,11.35
2022-10-09T20:01:16.507Z,11.10
2022-10-09T20:03:18.265Z,9.65
2022-10-09T20:05:19.962Z,9.13
2022-10-09T20:07:21.970Z,4.95
2022-10-09T20:09:23.713Z,5.00
2022-10-09T20:11:26.261Z,5.15
2022-10-09T20:13:28.010Z,4.05
2022-10-09T20:15:29.686Z,9.60
2022-10-09T20:17:31.356Z,4.55
2022-10-09T20:19:33.003Z,6.15
2022-10-09T20:21:34.759Z,5.10
2022-10-09T20:23:36.599Z,6.63
2022-10-09T20:25:38.263Z,10.55
2022-10-09T20:27:39.959Z,6.72
2022-10-09T20:29:41.732Z,5.93
2022-10-09T20:31:43.407Z,7.43
2022-10-09T20:33:46.459Z,5.55
2022-10-09T20:35:48.041Z,5.15
2022-10-09T20:37:49.667Z,5.63
2022-10-09T20:39:51.282Z,5.10
2022-10-09T20:41:53.329Z,5.38
2022-10-09T20:43:56.442Z,8.07
2022-10-09T20:45:58.096Z,5.57
2022-10-09T20:47:59.740Z,7.68
2022-10-09T20:50:01.464Z,6.05
2022-10-09T20:52:03.855Z,8.88
2022-10-09T20:54:06.541Z,5.25
2022-10-09T20:56:11.300Z,5.32
2022-10-09T20:58:13.004Z,6.38
2022-10-09T21:00:14.889Z,5.70
2022-10-09T21:02:16.508Z,5.28
2022-10-09T21:04:18.224Z,5.32
2022-10-09T21:06:21.281Z,5.57
2022-10-09T21:08:23.252Z,6.13
2022-10-09T21:10:25.004Z,6.15
2022-10-09T21:12:26.609Z,5.80
2022-10-09T21:14:28.256Z,5.50
2022-10-09T21:16:30.295Z,6.00
2022-10-09T21:18:32.105Z,6.82
2022-10-09T21:20:36.957Z,5.47
2022-10-09T21:22:38.654Z,6.97
2022-10-09T21:24:40.241Z,7.07
2022-10-09T21:26:46.800Z,6.72
2022-10-09T21:28:48.710Z,7.05
2022-10-09T21:30:50.568Z,5.43
2022-10-09T21:32:52.373Z,5.43
2022-10-09T21:34:54.263Z,5.15
2022-10-09T21:37:19.972Z,5.13
2022-10-09T21:39:17.997Z,5.22
2022-10-09T21:41:19.660Z,5.20
2022-10-09T21:43:21.412Z,6.10
2022-10-09T21:45:23.039Z,6.45
2022-10-09T21:47:25.295Z,8.52
2022-10-09T21:49:28.220Z,5.35
2022-10-09T21:51:30.316Z,10.70
2022-10-09T21:53:32.214Z,9.30
2022-10-09T21:55:33.930Z,5.05
2022-10-09T21:57:35.632Z,4.60
2022-10-09T21:59:37.278Z,5.03
2022-10-09T22:01:38.927Z,5.97
2022-10-09T22:03:41.817Z,5.50
2022-10-09T22:05:43.518Z,8.43
2022-10-09T22:07:45.222Z,6.10
2022-10-09T22:09:46.910Z,5.43
2022-10-09T22:11:48.622Z,4.28
2022-10-09T22:13:50.300Z,4.97
2022-10-09T22:15:52.052Z,11.30
2022-10-09T22:17:53.703Z,5.20
2022-10-09T22:19:55.315Z,7.07
2022-10-09T22:21:56.965Z,6.97
2022-10-09T22:24:00.202Z,6.07
2022-10-09T22:26:07.845Z,10.40
2022-10-09T22:28:09.720Z,4.75
2022-10-09T22:30:11.950Z,6.60
2022-10-09T22:32:13.711Z,4.88
2022-10-09T22:34:15.459Z,5.60
2022-10-09T22:36:18.385Z,5.32
2022-10-09T22:38:20.005Z,3.67
2022-10-09T22:40:21.698Z,6.80
2022-10-09T22:42:23.536Z,4.82
2022-10-09T22:44:25.191Z,5.30
2022-10-09T22:46:35.574Z,7.22
2022-10-09T22:48:37.563Z,7.05
2022-10-09T22:50:39.163Z,6.15
2022-10-09T22:52:40.916Z,5.22
2022-10-09T22:54:42.623Z,4.63
2022-10-09T22:56:45.692Z,5.22
2022-10-09T22:58:48.020Z,3.55
2022-10-09T23:00:49.857Z,3.20
2022-10-09T23:02:51.899Z,8.77
2022-10-09T23:04:53.826Z,3.40
2022-10-09T23:06:57.581Z,3.40
2022-10-09T23:09:00.337Z,3.33
2022-10-09T23:11:02.314Z,3.53
2022-10-09T23:13:04.607Z,3.97
2022-10-09T23:15:06.887Z,5.07
2022-10-09T23:17:08.554Z,4.63
2022-10-09T23:19:10.599Z,4.28
2022-10-09T23:21:14.607Z,4.38
2022-10-09T23:23:16.258Z,7.03
2022-10-09T23:25:17.986Z,4.18
2022-10-09T23:27:19.652Z,4.50
2022-10-09T23:29:21.439Z,5.43
2022-10-09T23:31:24.119Z,8.75
2022-10-09T23:33:25.754Z,3.95
2022-10-09T23:35:27.377Z,5.68
2022-10-09T23:37:29.025Z,4.55
2022-10-09T23:39:30.595Z,4.93
2022-10-09T23:41:32.641Z,4.05
2022-10-09T23:43:36.023Z,4.20
2022-10-09T23:45:40.620Z,3.55
2022-10-09T23:47:42.324Z,5.03
2022-10-09T23:49:43.871Z,4.10
2022-10-09T23:51:45.575Z,4.35
2022-10-09T23:53:47.293Z,3.97
2022-10-09T23:55:49.283Z,4.32
2022-10-09T23:57:51.291Z,5.05
2022-10-09T23:59:53.070Z,6.25
